SWA1924 KLIT-KDAL
Flight info
| Callsign | SWA1924 |
|---|---|
| Flight time | 0h 52m |
| Altitude | 32000 |
| Route | LESME DIRRK HIBIL3 |
| Aircraft | B738/M-SADE2E3GIJ4RWZ/LB1D1 |
Departure
| Time | 2026-04-20 23:04 |
|---|---|
| Airport | Bill & Hillary Clinton National Airport/Adams Field (KLIT) |
Arrival
| Time | 2026-04-20 23:56 |
|---|---|
| Airport | Dallas Love Field (KDAL) |
| Time | Latitude | Longitude | Altitude | Speed | Heading |
|---|---|---|---|---|---|
| 2026-04-20 22:48 | 34.73121 | -92.21999 | 267 ft | 0 kts | 155° |
| 2026-04-20 22:54 | 34.73133 | -92.22006 | 267 ft | 2 kts | 150° |
| 2026-04-20 22:55 | 34.73147 | -92.22017 | 267 ft | 2 kts | 142° |
| 2026-04-20 22:55 | 34.73159 | -92.22030 | 267 ft | 2 kts | 128° |
| 2026-04-20 22:55 | 34.73168 | -92.22048 | 267 ft | 2 kts | 103° |
| 2026-04-20 22:55 | 34.73167 | -92.22067 | 267 ft | 2 kts | 64° |
| 2026-04-20 22:56 | 34.73160 | -92.22080 | 267 ft | 1 kts | 30° |
| 2026-04-20 22:56 | 34.73159 | -92.22081 | 267 ft | 0 kts | 27° |
| 2026-04-20 22:59 | 34.73186 | -92.22067 | 270 ft | 8 kts | 21° |
| 2026-04-20 23:00 | 34.73216 | -92.22038 | 267 ft | 0 kts | 61° |
| 2026-04-20 23:00 | 34.73228 | -92.22041 | 267 ft | 2 kts | 331° |
| 2026-04-20 23:00 | 34.73267 | -92.22145 | 266 ft | 19 kts | 290° |
| 2026-04-20 23:00 | 34.73343 | -92.22211 | 266 ft | 15 kts | 30° |
| 2026-04-20 23:01 | 34.73414 | -92.22126 | 266 ft | 14 kts | 46° |
| 2026-04-20 23:01 | 34.73484 | -92.22036 | 263 ft | 15 kts | 46° |
| 2026-04-20 23:01 | 34.73559 | -92.21941 | 263 ft | 15 kts | 46° |
| 2026-04-20 23:01 | 34.73630 | -92.21851 | 264 ft | 14 kts | 46° |
| 2026-04-20 23:02 | 34.73698 | -92.21764 | 263 ft | 14 kts | 43° |
| 2026-04-20 23:02 | 34.73748 | -92.21751 | 263 ft | 1 kts | 330° |
| 2026-04-20 23:02 | 34.73750 | -92.21754 | 263 ft | 0 kts | 317° |
| 2026-04-20 23:03 | 34.73780 | -92.21803 | 261 ft | 14 kts | 282° |
| 2026-04-20 23:03 | 34.73627 | -92.22050 | 259 ft | 82 kts | 226° |
| 2026-04-20 23:03 | 34.73035 | -92.22803 | 339 ft | 159 kts | 226° |
| 2026-04-20 23:04 | 34.72297 | -92.23814 | 1448 ft | 157 kts | 236° |
| 2026-04-20 23:04 | 34.71672 | -92.24986 | 2354 ft | 178 kts | 239° |
| 2026-04-20 23:04 | 34.70959 | -92.26393 | 2773 ft | 212 kts | 239° |
| 2026-04-20 23:04 | 34.70147 | -92.28016 | 3217 ft | 233 kts | 240° |
| 2026-04-20 23:05 | 34.69262 | -92.29790 | 3720 ft | 256 kts | 240° |
| 2026-04-20 23:05 | 34.68328 | -92.31667 | 4724 ft | 260 kts | 240° |
| 2026-04-20 23:05 | 34.67395 | -92.33570 | 5744 ft | 266 kts | 244° |
| 2026-04-20 23:05 | 34.66582 | -92.35627 | 6646 ft | 274 kts | 249° |
| 2026-04-20 23:06 | 34.65810 | -92.37763 | 7667 ft | 274 kts | 249° |
| 2026-04-20 23:06 | 34.65042 | -92.39869 | 8843 ft | 273 kts | 249° |
| 2026-04-20 23:06 | 34.64276 | -92.41969 | 10013 ft | 271 kts | 249° |
| 2026-04-20 23:06 | 34.63500 | -92.44094 | 10760 ft | 284 kts | 249° |
| 2026-04-20 23:07 | 34.62661 | -92.46404 | 10976 ft | 314 kts | 249° |
| 2026-04-20 23:07 | 34.61740 | -92.48938 | 11322 ft | 337 kts | 249° |
| 2026-04-20 23:07 | 34.60779 | -92.51569 | 12085 ft | 343 kts | 249° |
| 2026-04-20 23:07 | 34.59806 | -92.54226 | 12985 ft | 346 kts | 249° |
| 2026-04-20 23:08 | 34.58823 | -92.56907 | 13881 ft | 350 kts | 249° |
| 2026-04-20 23:08 | 34.57828 | -92.59628 | 14676 ft | 354 kts | 249° |
| 2026-04-20 23:08 | 34.56825 | -92.62359 | 15522 ft | 356 kts | 249° |
| 2026-04-20 23:08 | 34.55813 | -92.65116 | 16324 ft | 359 kts | 249° |
| 2026-04-20 23:09 | 34.54792 | -92.67894 | 17091 ft | 362 kts | 250° |
| 2026-04-20 23:09 | 34.53761 | -92.70697 | 17879 ft | 365 kts | 250° |
| 2026-04-20 23:09 | 34.52723 | -92.73519 | 18660 ft | 368 kts | 250° |
| 2026-04-20 23:09 | 34.51676 | -92.76363 | 19351 ft | 370 kts | 250° |
| 2026-04-20 23:10 | 34.50626 | -92.79213 | 20058 ft | 371 kts | 250° |
| 2026-04-20 23:10 | 34.49570 | -92.82075 | 20757 ft | 372 kts | 250° |
| 2026-04-20 23:10 | 34.48512 | -92.84944 | 21451 ft | 374 kts | 251° |
| 2026-04-20 23:10 | 34.47447 | -92.87827 | 22088 ft | 376 kts | 251° |
| 2026-04-20 23:11 | 34.46378 | -92.90720 | 22727 ft | 377 kts | 251° |
| 2026-04-20 23:11 | 34.45300 | -92.93634 | 23338 ft | 380 kts | 251° |
| 2026-04-20 23:11 | 34.44217 | -92.96558 | 23929 ft | 382 kts | 251° |
| 2026-04-20 23:11 | 34.43129 | -92.99495 | 24423 ft | 383 kts | 251° |
| 2026-04-20 23:12 | 34.42031 | -93.02454 | 24857 ft | 387 kts | 251° |
| 2026-04-20 23:12 | 34.40940 | -93.05394 | 25310 ft | 389 kts | 251° |
| 2026-04-20 23:12 | 34.39826 | -93.08389 | 25805 ft | 391 kts | 251° |
| 2026-04-20 23:12 | 34.38707 | -93.11397 | 26270 ft | 392 kts | 251° |
| 2026-04-20 23:13 | 34.37582 | -93.14420 | 26695 ft | 395 kts | 251° |
| 2026-04-20 23:13 | 34.36448 | -93.17461 | 27098 ft | 398 kts | 251° |
| 2026-04-20 23:13 | 34.35305 | -93.20524 | 27536 ft | 399 kts | 251° |
| 2026-04-20 23:13 | 34.34158 | -93.23598 | 27950 ft | 401 kts | 251° |
| 2026-04-20 23:14 | 34.33004 | -93.26685 | 28307 ft | 404 kts | 251° |
| 2026-04-20 23:14 | 34.31844 | -93.29786 | 28740 ft | 405 kts | 251° |
| 2026-04-20 23:14 | 34.30684 | -93.32879 | 29351 ft | 402 kts | 251° |
| 2026-04-20 23:14 | 34.29536 | -93.35933 | 30015 ft | 397 kts | 251° |
| 2026-04-20 23:15 | 34.28395 | -93.38971 | 30539 ft | 396 kts | 251° |
| 2026-04-20 23:15 | 34.27257 | -93.42002 | 30961 ft | 395 kts | 251° |
| 2026-04-20 23:15 | 34.26124 | -93.45016 | 31432 ft | 393 kts | 251° |
| 2026-04-20 23:15 | 34.24996 | -93.48017 | 31890 ft | 391 kts | 251° |
| 2026-04-20 23:16 | 34.23869 | -93.51011 | 32240 ft | 392 kts | 251° |
| 2026-04-20 23:16 | 34.22742 | -93.54002 | 32265 ft | 390 kts | 251° |
| 2026-04-20 23:16 | 34.20510 | -93.59920 | 32279 ft | 390 kts | 251° |
| 2026-04-20 23:17 | 34.18251 | -93.65900 | 32276 ft | 392 kts | 251° |
| 2026-04-20 23:17 | 34.15983 | -93.71891 | 32277 ft | 393 kts | 251° |
| 2026-04-20 23:18 | 34.13706 | -93.77899 | 32272 ft | 393 kts | 251° |
| 2026-04-20 23:18 | 34.11641 | -93.83991 | 32270 ft | 391 kts | 253° |
| 2026-04-20 23:19 | 34.09675 | -93.90103 | 32266 ft | 390 kts | 253° |
| 2026-04-20 23:19 | 34.07699 | -93.96198 | 32266 ft | 390 kts | 253° |
| 2026-04-20 23:20 | 34.05709 | -94.02268 | 32261 ft | 389 kts | 253° |
| 2026-04-20 23:20 | 34.03713 | -94.08324 | 32264 ft | 388 kts | 253° |
| 2026-04-20 23:21 | 34.01730 | -94.14324 | 32260 ft | 388 kts | 253° |
| 2026-04-20 23:21 | 33.99732 | -94.20355 | 32256 ft | 387 kts | 253° |
| 2026-04-20 23:22 | 33.97730 | -94.26387 | 32252 ft | 387 kts | 253° |
| 2026-04-20 23:22 | 33.95730 | -94.32402 | 32259 ft | 387 kts | 253° |
| 2026-04-20 23:23 | 33.93725 | -94.38423 | 32257 ft | 387 kts | 253° |
| 2026-04-20 23:23 | 33.92056 | -94.43423 | 32258 ft | 387 kts | 253° |
| 2026-04-20 23:24 | 33.90046 | -94.49436 | 32257 ft | 387 kts | 252° |
| 2026-04-20 23:24 | 33.88032 | -94.55449 | 32257 ft | 387 kts | 252° |
| 2026-04-20 23:25 | 33.86015 | -94.61458 | 32253 ft | 387 kts | 252° |
| 2026-04-20 23:25 | 33.83996 | -94.67465 | 32262 ft | 387 kts | 252° |
| 2026-04-20 23:26 | 33.81971 | -94.73474 | 32259 ft | 387 kts | 252° |
| 2026-04-20 23:26 | 33.79945 | -94.79479 | 32262 ft | 388 kts | 252° |
| 2026-04-20 23:27 | 33.77915 | -94.85485 | 32265 ft | 388 kts | 252° |
| 2026-04-20 23:27 | 33.75885 | -94.91447 | 32263 ft | 388 kts | 252° |
| 2026-04-20 23:28 | 33.73820 | -94.97441 | 32264 ft | 388 kts | 252° |
| 2026-04-20 23:28 | 33.71750 | -95.03444 | 31894 ft | 393 kts | 251° |
| 2026-04-20 23:29 | 33.70710 | -95.06454 | 31455 ft | 387 kts | 251° |
| 2026-04-20 23:29 | 33.69683 | -95.09423 | 30936 ft | 383 kts | 251° |
| 2026-04-20 23:29 | 33.68665 | -95.12366 | 30417 ft | 379 kts | 252° |
| 2026-04-20 23:29 | 33.67658 | -95.15276 | 29830 ft | 376 kts | 252° |
| 2026-04-20 23:30 | 33.66662 | -95.18154 | 29245 ft | 372 kts | 252° |
| 2026-04-20 23:30 | 33.65673 | -95.21009 | 28709 ft | 368 kts | 252° |
| 2026-04-20 23:30 | 33.64696 | -95.23830 | 28170 ft | 364 kts | 252° |
| 2026-04-20 23:30 | 33.63726 | -95.26625 | 27657 ft | 361 kts | 252° |
| 2026-04-20 23:31 | 33.62765 | -95.29397 | 27136 ft | 358 kts | 252° |
| 2026-04-20 23:31 | 33.61810 | -95.32145 | 26631 ft | 356 kts | 252° |
| 2026-04-20 23:31 | 33.60862 | -95.34869 | 26277 ft | 350 kts | 252° |
| 2026-04-20 23:31 | 33.59932 | -95.37535 | 25790 ft | 347 kts | 252° |
| 2026-04-20 23:32 | 33.58987 | -95.40256 | 24834 ft | 361 kts | 252° |
| 2026-04-20 23:32 | 33.58034 | -95.42992 | 24234 ft | 361 kts | 252° |
| 2026-04-20 23:32 | 33.57069 | -95.45788 | 23563 ft | 364 kts | 252° |
| 2026-04-20 23:32 | 33.56110 | -95.48582 | 22980 ft | 361 kts | 252° |
| 2026-04-20 23:33 | 33.55156 | -95.51357 | 22456 ft | 358 kts | 251° |
| 2026-04-20 23:33 | 33.54212 | -95.54104 | 21955 ft | 355 kts | 251° |
| 2026-04-20 23:33 | 33.53272 | -95.56833 | 21474 ft | 352 kts | 251° |
| 2026-04-20 23:33 | 33.52342 | -95.59534 | 21000 ft | 349 kts | 251° |
| 2026-04-20 23:34 | 33.51420 | -95.62213 | 20530 ft | 347 kts | 251° |
| 2026-04-20 23:34 | 33.50500 | -95.64879 | 20072 ft | 345 kts | 251° |
| 2026-04-20 23:34 | 33.49586 | -95.67525 | 19610 ft | 343 kts | 250° |
| 2026-04-20 23:34 | 33.48674 | -95.70158 | 19098 ft | 343 kts | 250° |
| 2026-04-20 23:35 | 33.47749 | -95.72807 | 18534 ft | 345 kts | 250° |
| 2026-04-20 23:35 | 33.45883 | -95.78120 | 17298 ft | 347 kts | 249° |
| 2026-04-20 23:35 | 33.44948 | -95.80779 | 16791 ft | 345 kts | 249° |
| 2026-04-20 23:36 | 33.44024 | -95.83404 | 16313 ft | 343 kts | 249° |
| 2026-04-20 23:36 | 33.43095 | -95.86043 | 15847 ft | 341 kts | 249° |
| 2026-04-20 23:36 | 33.42177 | -95.88651 | 15393 ft | 339 kts | 249° |
| 2026-04-20 23:36 | 33.41264 | -95.91245 | 14940 ft | 337 kts | 248° |
| 2026-04-20 23:37 | 33.40354 | -95.93824 | 14489 ft | 336 kts | 248° |
| 2026-04-20 23:37 | 33.39447 | -95.96398 | 14018 ft | 335 kts | 248° |
| 2026-04-20 23:37 | 33.38542 | -95.98962 | 13529 ft | 333 kts | 248° |
| 2026-04-20 23:37 | 33.37642 | -96.01510 | 13059 ft | 332 kts | 248° |
| 2026-04-20 23:38 | 33.36747 | -96.04041 | 12598 ft | 329 kts | 248° |
| 2026-04-20 23:38 | 33.35859 | -96.06552 | 12155 ft | 327 kts | 248° |
| 2026-04-20 23:38 | 33.34986 | -96.09019 | 11720 ft | 325 kts | 248° |
| 2026-04-20 23:38 | 33.34111 | -96.11490 | 11283 ft | 323 kts | 247° |
| 2026-04-20 23:39 | 33.33243 | -96.13935 | 11134 ft | 312 kts | 247° |
| 2026-04-20 23:39 | 33.32403 | -96.16300 | 10821 ft | 308 kts | 247° |
| 2026-04-20 23:39 | 33.31569 | -96.18647 | 10481 ft | 304 kts | 247° |
| 2026-04-20 23:39 | 33.30757 | -96.20931 | 10358 ft | 294 kts | 247° |
| 2026-04-20 23:40 | 33.29967 | -96.23153 | 10222 ft | 288 kts | 246° |
| 2026-04-20 23:40 | 33.29185 | -96.25351 | 10094 ft | 286 kts | 247° |
| 2026-04-20 23:40 | 33.28400 | -96.27558 | 10041 ft | 290 kts | 247° |
| 2026-04-20 23:40 | 33.27623 | -96.29737 | 10013 ft | 280 kts | 246° |
| 2026-04-20 23:41 | 33.26865 | -96.31862 | 9855 ft | 280 kts | 246° |
| 2026-04-20 23:41 | 33.26017 | -96.33970 | 9593 ft | 281 kts | 237° |
| 2026-04-20 23:41 | 33.24873 | -96.35846 | 9334 ft | 278 kts | 231° |
| 2026-04-20 23:41 | 33.23664 | -96.37626 | 9084 ft | 274 kts | 230° |
| 2026-04-20 23:42 | 33.22465 | -96.39389 | 8829 ft | 272 kts | 231° |
| 2026-04-20 23:42 | 33.21293 | -96.41148 | 8576 ft | 269 kts | 231° |
| 2026-04-20 23:42 | 33.20141 | -96.42902 | 8321 ft | 268 kts | 231° |
| 2026-04-20 23:42 | 33.18998 | -96.44651 | 8077 ft | 266 kts | 231° |
| 2026-04-20 23:43 | 33.17878 | -96.46368 | 7834 ft | 265 kts | 231° |
| 2026-04-20 23:43 | 33.16780 | -96.48146 | 7592 ft | 267 kts | 233° |
| 2026-04-20 23:43 | 33.15713 | -96.49972 | 7358 ft | 268 kts | 234° |
| 2026-04-20 23:43 | 33.14657 | -96.51794 | 7118 ft | 267 kts | 234° |
| 2026-04-20 23:44 | 33.13602 | -96.53609 | 6876 ft | 266 kts | 234° |
| 2026-04-20 23:44 | 33.12552 | -96.55408 | 6637 ft | 263 kts | 233° |
| 2026-04-20 23:44 | 33.11512 | -96.57185 | 6388 ft | 260 kts | 233° |
| 2026-04-20 23:44 | 33.10476 | -96.58950 | 6132 ft | 259 kts | 232° |
| 2026-04-20 23:45 | 33.09446 | -96.60703 | 5883 ft | 257 kts | 232° |
| 2026-04-20 23:45 | 33.08427 | -96.62435 | 5630 ft | 255 kts | 232° |
| 2026-04-20 23:45 | 33.07413 | -96.64156 | 5388 ft | 253 kts | 232° |
| 2026-04-20 23:45 | 33.06398 | -96.65852 | 5162 ft | 247 kts | 230° |
| 2026-04-20 23:46 | 33.05537 | -96.67586 | 4889 ft | 244 kts | 250° |
| 2026-04-20 23:46 | 33.05405 | -96.69574 | 4666 ft | 239 kts | 269° |
| 2026-04-20 23:46 | 33.05510 | -96.71521 | 4391 ft | 233 kts | 271° |
| 2026-04-20 23:46 | 33.05638 | -96.73423 | 4144 ft | 227 kts | 271° |
| 2026-04-20 23:47 | 33.05768 | -96.75284 | 3890 ft | 224 kts | 272° |
| 2026-04-20 23:47 | 33.05895 | -96.77135 | 3646 ft | 224 kts | 271° |
| 2026-04-20 23:47 | 33.06027 | -96.78986 | 3401 ft | 224 kts | 271° |
| 2026-04-20 23:47 | 33.06165 | -96.80834 | 3151 ft | 223 kts | 272° |
| 2026-04-20 23:48 | 33.06296 | -96.82624 | 3045 ft | 210 kts | 271° |
| 2026-04-20 23:48 | 33.06424 | -96.84303 | 3039 ft | 200 kts | 271° |
| 2026-04-20 23:48 | 33.06553 | -96.85956 | 3035 ft | 201 kts | 271° |
| 2026-04-20 23:48 | 33.06681 | -96.87621 | 3014 ft | 202 kts | 271° |
| 2026-04-20 23:49 | 33.06807 | -96.89262 | 3021 ft | 202 kts | 271° |
| 2026-04-20 23:49 | 33.06934 | -96.90945 | 2928 ft | 208 kts | 272° |
| 2026-04-20 23:49 | 33.07064 | -96.92665 | 2678 ft | 207 kts | 272° |
| 2026-04-20 23:49 | 33.07195 | -96.94349 | 2531 ft | 203 kts | 272° |
| 2026-04-20 23:50 | 33.07324 | -96.96027 | 2501 ft | 203 kts | 271° |
| 2026-04-20 23:50 | 33.07115 | -96.97615 | 2501 ft | 190 kts | 238° |
| 2026-04-20 23:50 | 33.06201 | -96.98662 | 2541 ft | 184 kts | 209° |
| 2026-04-20 23:50 | 33.05073 | -96.99438 | 2519 ft | 189 kts | 207° |
| 2026-04-20 23:51 | 33.03922 | -97.00202 | 2494 ft | 188 kts | 207° |
| 2026-04-20 23:51 | 33.02745 | -97.00763 | 2501 ft | 183 kts | 192° |
| 2026-04-20 23:51 | 33.01486 | -97.01118 | 2501 ft | 183 kts | 193° |
| 2026-04-20 23:51 | 33.00234 | -97.01337 | 2482 ft | 184 kts | 170° |
| 2026-04-20 23:52 | 32.99120 | -97.00651 | 2504 ft | 182 kts | 146° |
| 2026-04-20 23:52 | 32.98104 | -96.99741 | 2499 ft | 183 kts | 145° |
| 2026-04-20 23:52 | 32.97104 | -96.98810 | 2503 ft | 181 kts | 141° |
| 2026-04-20 23:52 | 32.96184 | -96.97824 | 2502 ft | 179 kts | 139° |
| 2026-04-20 23:53 | 32.95291 | -96.96803 | 2491 ft | 177 kts | 138° |
| 2026-04-20 23:53 | 32.94411 | -96.95784 | 2493 ft | 177 kts | 138° |
| 2026-04-20 23:53 | 32.93528 | -96.94756 | 2488 ft | 173 kts | 139° |
| 2026-04-20 23:53 | 32.92682 | -96.93772 | 2410 ft | 171 kts | 138° |
| 2026-04-20 23:54 | 32.91853 | -96.92807 | 2220 ft | 161 kts | 137° |
| 2026-04-20 23:54 | 32.91079 | -96.91906 | 1997 ft | 150 kts | 138° |
| 2026-04-20 23:54 | 32.90358 | -96.91067 | 1825 ft | 143 kts | 139° |
| 2026-04-20 23:54 | 32.89657 | -96.90253 | 1628 ft | 139 kts | 139° |
| 2026-04-20 23:55 | 32.88950 | -96.89433 | 1432 ft | 144 kts | 138° |
| 2026-04-20 23:55 | 32.88241 | -96.88594 | 1244 ft | 146 kts | 137° |
| 2026-04-20 23:55 | 32.87528 | -96.87743 | 1120 ft | 147 kts | 136° |
| 2026-04-20 23:55 | 32.86779 | -96.86896 | 887 ft | 150 kts | 136° |
| 2026-04-20 23:56 | 32.86030 | -96.86028 | 633 ft | 150 kts | 136° |
| 2026-04-20 23:56 | 32.85304 | -96.85182 | 485 ft | 138 kts | 137° |
| 2026-04-20 23:56 | 32.84718 | -96.84514 | 481 ft | 82 kts | 136° |
| 2026-04-20 23:56 | 32.84510 | -96.84272 | 481 ft | 27 kts | 136° |
| 2026-04-20 23:57 | 32.84433 | -96.84282 | 479 ft | 11 kts | 219° |
| 2026-04-20 23:57 | 32.84429 | -96.84355 | 478 ft | 10 kts | 301° |
| 2026-04-20 23:57 | 32.84478 | -96.84414 | 481 ft | 11 kts | 316° |
| 2026-04-20 23:57 | 32.84546 | -96.84492 | 481 ft | 16 kts | 316° |
| 2026-04-20 23:58 | 32.84635 | -96.84597 | 481 ft | 20 kts | 315° |
| 2026-04-20 23:58 | 32.84746 | -96.84726 | 481 ft | 22 kts | 315° |
| 2026-04-20 23:58 | 32.84767 | -96.84817 | 481 ft | 13 kts | 236° |
| 2026-04-20 23:58 | 32.84746 | -96.84935 | 481 ft | 17 kts | 271° |
| 2026-04-20 23:59 | 32.84747 | -96.85069 | 475 ft | 16 kts | 270° |
| 2026-04-20 23:59 | 32.84732 | -96.85175 | 475 ft | 10 kts | 204° |
| 2026-04-20 23:59 | 32.84684 | -96.85185 | 479 ft | 6 kts | 175° |
| 2026-04-20 23:59 | 32.84655 | -96.85183 | 478 ft | 0 kts | 179° |